Fort Saint John, Canada
Current Conditions -  °F | °C
As of 9:00 AM on Sunday 21 Dec 2014 (Local Time) from CYXJ Reporting Station
Overcast Overcast  
Wind Chill:   Ceiling: 14000
Heat Index: 14°   Visibility: 15mi
Dew Point: 12°   Wind: 7mph
Humidity: 93%   Direction: 350°N
Pressure: 29.35"   Gusts: NA
Location:  56.25°N, 120.85°W
Report Text: CYXJ 211600Z 35006KT 15SM OVC140 M10/M11 A2935 RMK AC8 SLP982
Loading
Personal Weather Stations






























Interactive Weather Map New forecast layout! Learn more

10-Day Weather Forecast

Advertisements
Track Severe Weather on mobile